Time;durP1;ratioP1;P1;durP2;ratioP2;P2;SDS_P1;SDS_P2;PMS_P1;PMS_P2;Temp;Humidity;BMP_temperature;BMP_pressure;BME280_temperature;BME280_humidity;BME280_pressure;Samples;Min_cycle;Max_cycle;Signal;HPM_P1;HPM_P2
2024/04/08 00:01:44;;;;;;;3.22;1.20;;;16.40;74.50;;;;;;5414061;26;20581;-66
2024/04/08 00:04:09;;;;;;;1.45;0.88;;;16.30;75.00;;;;;;5413743;26;20073;-67
2024/04/08 00:06:35;;;;;;;1.25;0.85;;;16.20;75.30;;;;;;5397135;26;20474;-67
2024/04/08 00:09:01;;;;;;;1.85;0.90;;;16.30;75.30;;;;;;5409103;26;20761;-67
2024/04/08 00:11:26;;;;;;;1.42;0.90;;;16.20;75.10;;;;;;5417461;26;20007;-65
2024/04/08 00:13:52;;;;;;;1.60;1.00;;;16.20;75.00;;;;;;5401802;26;20011;-66
2024/04/08 00:16:17;;;;;;;1.63;1.02;;;16.30;75.10;;;;;;5397477;26;20012;-66
2024/04/08 00:18:43;;;;;;;1.45;1.00;;;16.30;75.10;;;;;;5416373;26;20000;-65
2024/04/08 00:21:08;;;;;;;1.55;1.05;;;16.20;75.30;;;;;;5423222;26;20014;-66
2024/04/08 00:23:34;;;;;;;1.30;1.10;;;16.20;75.50;;;;;;5415900;26;20478;-66
2024/04/08 00:26:06;;;;;;;3.22;1.20;;;16.20;75.90;;;;;;5419024;26;20007;-66
2024/04/08 00:28:37;;;;;;;2.88;0.90;;;16.20;75.90;;;;;;5422357;26;20007;-66
2024/04/08 00:31:07;;;;;;;1.52;1.13;;;16.20;76.00;;;;;;5426567;26;20326;-66
2024/04/08 00:33:34;;;;;;;2.00;1.10;;;16.10;76.50;;;;;;5404006;26;20445;-66
2024/04/08 00:36:00;;;;;;;1.80;0.90;;;16.10;76.60;;;;;;5422530;26;20381;-65
2024/04/08 00:38:26;;;;;;;1.38;0.93;;;16.10;76.80;;;;;;5432575;26;19999;-66
2024/04/08 00:40:51;;;;;;;2.35;1.30;;;16.00;77.10;;;;;;5429484;26;20010;-67
2024/04/08 00:43:17;;;;;;;2.08;1.00;;;16.00;77.50;;;;;;5430240;26;20342;-66
2024/04/08 00:45:47;;;;;;;2.92;0.90;;;16.00;77.40;;;;;;5430849;26;20067;-66
2024/04/08 00:48:14;;;;;;;1.00;0.90;;;16.00;77.20;;;;;;5425040;26;20007;-66
2024/04/08 00:50:44;;;;;;;2.53;1.20;;;16.00;77.40;;;;;;5401517;26;19999;-66
2024/04/08 00:53:11;;;;;;;1.88;0.98;;;16.00;77.50;;;;;;5414916;26;20006;-66
2024/04/08 00:55:37;;;;;;;1.60;0.75;;;16.00;77.50;;;;;;5419791;26;19999;-66
2024/04/08 00:58:04;;;;;;;1.42;0.80;;;16.10;77.40;;;;;;5404364;26;20029;-66
2024/04/08 01:00:30;;;;;;;1.77;0.90;;;16.10;77.30;;;;;;5421529;26;20064;-66
2024/04/08 01:02:58;;;;;;;1.42;0.80;;;16.00;77.40;;;;;;5434699;26;20372;-66
2024/04/08 01:05:24;;;;;;;1.63;1.00;;;16.10;77.40;;;;;;5411301;26;20019;-66
2024/04/08 01:07:50;;;;;;;2.03;1.23;;;16.00;77.40;;;;;;5428785;26;20087;-66
2024/04/08 01:10:17;;;;;;;1.20;0.90;;;16.10;77.60;;;;;;5431840;26;20446;-66
2024/04/08 01:12:42;;;;;;;1.48;1.00;;;16.00;77.70;;;;;;5398097;26;20000;-66
2024/04/08 01:15:08;;;;;;;1.20;0.90;;;16.00;77.70;;;;;;5412289;26;20033;-66
2024/04/08 01:17:34;;;;;;;1.92;1.00;;;16.00;77.80;;;;;;5430765;26;20013;-67
2024/04/08 01:19:59;;;;;;;1.23;0.80;;;16.00;77.90;;;;;;5427132;26;19999;-66
2024/04/08 01:22:30;;;;;;;1.02;0.80;;;16.00;77.90;;;;;;5418215;26;20011;-66
2024/04/08 01:24:58;;;;;;;1.75;0.60;;;16.00;77.80;;;;;;5421946;26;19999;-66
2024/04/08 01:27:25;;;;;;;0.52;0.50;;;16.00;77.80;;;;;;5426007;26;20045;-66
2024/04/08 01:29:50;;;;;;;1.17;0.60;;;16.00;77.80;;;;;;5429168;26;20072;-65
2024/04/08 01:32:16;;;;;;;1.65;0.60;;;16.00;77.90;;;;;;5395042;26;19992;-65
2024/04/08 01:34:42;;;;;;;1.42;0.70;;;16.00;77.90;;;;;;5421508;26;20010;-65
2024/04/08 01:37:07;;;;;;;1.08;0.63;;;16.00;77.80;;;;;;5440466;26;20007;-66
2024/04/08 01:39:33;;;;;;;0.95;0.73;;;16.00;77.70;;;;;;5424954;26;19996;-66
2024/04/08 01:41:58;;;;;;;0.60;0.60;;;16.00;77.70;;;;;;5419226;26;20018;-65
2024/04/08 01:44:24;;;;;;;0.60;0.50;;;16.00;77.80;;;;;;5423727;26;19999;-66
2024/04/08 01:46:50;;;;;;;0.95;0.70;;;15.90;77.70;;;;;;5415594;26;19991;-65
2024/04/08 01:49:15;;;;;;;1.05;0.70;;;16.00;77.80;;;;;;5423579;26;20000;-66
2024/04/08 01:51:41;;;;;;;1.00;0.65;;;16.00;77.80;;;;;;5399779;26;20001;-66
2024/04/08 01:54:11;;;;;;;2.13;0.70;;;15.90;77.90;;;;;;5412906;26;20035;-66
2024/04/08 01:56:40;;;;;;;2.28;0.70;;;15.90;77.80;;;;;;5426969;26;19991;-65
2024/04/08 01:59:06;;;;;;;1.13;0.77;;;16.00;77.90;;;;;;5421962;26;20012;-66
2024/04/08 02:01:31;;;;;;;1.15;0.63;;;15.90;78.00;;;;;;5424553;26;20000;-65
2024/04/08 02:03:57;;;;;;;0.90;0.68;;;15.90;78.10;;;;;;5423322;26;20685;-65
2024/04/08 02:06:22;;;;;;;1.17;0.60;;;15.90;78.00;;;;;;5422528;26;20440;-66
2024/04/08 02:08:48;;;;;;;0.95;0.60;;;15.90;77.90;;;;;;5403062;26;20014;-66
2024/04/08 02:11:14;;;;;;;1.50;0.70;;;15.90;78.00;;;;;;5420542;26;19999;-66
2024/04/08 02:13:41;;;;;;;0.50;0.50;;;15.80;78.10;;;;;;5412046;26;20073;-66
2024/04/08 02:16:07;;;;;;;0.82;0.60;;;15.80;78.30;;;;;;5403962;26;20030;-65
2024/04/08 02:18:33;;;;;;;0.80;0.60;;;15.70;78.50;;;;;;5418022;26;20003;-66
2024/04/08 02:20:59;;;;;;;0.90;0.70;;;15.70;78.60;;;;;;5425285;26;20041;-66
2024/04/08 02:23:25;;;;;;;2.35;0.60;;;15.70;78.80;;;;;;5429680;26;20493;-67
2024/04/08 02:25:50;;;;;;;0.73;0.63;;;15.60;79.00;;;;;;5427570;26;20080;-66
2024/04/08 02:28:16;;;;;;;0.77;0.75;;;15.50;79.20;;;;;;5413444;26;20033;-66
2024/04/08 02:30:41;;;;;;;0.50;0.50;;;15.50;79.20;;;;;;5421128;26;20022;-66
2024/04/08 02:33:07;;;;;;;0.70;0.63;;;15.50;79.30;;;;;;5420657;26;20018;-67
2024/04/08 02:35:37;;;;;;;2.33;1.10;;;15.50;79.30;;;;;;5407251;26;20003;-67
2024/04/08 02:38:04;;;;;;;0.80;0.60;;;15.40;79.30;;;;;;5414383;26;20470;-67
2024/04/08 02:40:32;;;;;;;0.50;0.50;;;15.50;79.30;;;;;;5419649;26;20003;-67
2024/04/08 02:43:01;;;;;;;1.73;0.85;;;15.50;79.10;;;;;;5415108;26;20031;-66
2024/04/08 02:45:27;;;;;;;0.63;0.63;;;15.50;79.10;;;;;;5434339;26;20011;-67
2024/04/08 02:47:53;;;;;;;1.33;0.70;;;15.60;79.10;;;;;;5438091;26;20013;-65
2024/04/08 02:50:19;;;;;;;1.17;0.98;;;15.60;79.00;;;;;;5432437;26;20031;-66
2024/04/08 02:52:44;;;;;;;1.55;0.63;;;15.50;79.30;;;;;;5432002;26;20084;-66
2024/04/08 02:55:11;;;;;;;1.38;0.90;;;15.50;79.30;;;;;;5399590;26;20039;-66
2024/04/08 02:57:37;;;;;;;1.00;0.60;;;15.50;79.40;;;;;;5418549;26;20318;-66
2024/04/08 03:00:02;;;;;;;2.08;0.85;;;15.50;79.40;;;;;;5439137;26;19995;-65
2024/04/08 03:02:28;;;;;;;1.20;0.90;;;15.50;79.40;;;;;;5438050;26;19999;-65
2024/04/08 03:04:53;;;;;;;1.00;0.90;;;15.50;79.60;;;;;;5419892;26;20009;-65
2024/04/08 03:07:19;;;;;;;2.75;1.40;;;15.50;79.60;;;;;;5431821;26;19994;-66
2024/04/08 03:09:51;;;;;;;2.13;1.30;;;15.40;80.00;;;;;;5434719;26;20006;-66
2024/04/08 03:12:17;;;;;;;1.30;1.15;;;15.40;80.40;;;;;;5419376;26;20012;-66
2024/04/08 03:14:42;;;;;;;2.15;1.30;;;15.40;80.40;;;;;;5408226;26;20070;-67
2024/04/08 03:17:08;;;;;;;1.48;1.20;;;15.40;80.60;;;;;;5412136;26;20515;-66
2024/04/08 03:19:34;;;;;;;3.80;1.30;;;15.40;80.30;;;;;;5415310;26;19995;-65
2024/04/08 03:21:59;;;;;;;2.17;1.13;;;15.40;80.40;;;;;;5413607;26;20008;-66
2024/04/08 03:24:27;;;;;;;1.10;1.00;;;15.40;80.40;;;;;;5412164;26;20050;-67
2024/04/08 03:26:53;;;;;;;3.28;1.40;;;15.40;80.20;;;;;;5425247;26;20003;-66
2024/04/08 03:29:18;;;;;;;2.63;1.70;;;15.40;80.50;;;;;;5429591;26;20018;-67
2024/04/08 03:31:44;;;;;;;1.83;1.42;;;15.40;81.00;;;;;;5433789;26;20011;-67
2024/04/08 03:34:09;;;;;;;1.30;1.20;;;15.30;81.20;;;;;;5426668;26;21849;-67
2024/04/08 03:36:35;;;;;;;1.70;1.20;;;15.30;81.20;;;;;;5401428;26;20069;-66
2024/04/08 03:39:00;;;;;;;1.52;1.23;;;15.30;81.20;;;;;;5411849;26;20004;-67
2024/04/08 03:41:26;;;;;;;1.55;1.10;;;15.30;81.10;;;;;;5407817;26;20075;-67
2024/04/08 03:43:52;;;;;;;2.67;1.25;;;15.40;81.00;;;;;;5410597;26;20454;-67
2024/04/08 03:46:17;;;;;;;1.85;1.40;;;15.30;81.20;;;;;;5411917;26;19995;-67
2024/04/08 03:48:43;;;;;;;2.10;1.27;;;15.40;81.40;;;;;;5410457;26;20061;-66
2024/04/08 03:51:09;;;;;;;1.65;1.30;;;15.30;81.50;;;;;;5408828;26;19999;-67
2024/04/08 03:53:35;;;;;;;1.40;1.02;;;15.30;81.80;;;;;;5403677;26;20011;-67
2024/04/08 03:56:11;;;;;;;3.20;1.70;;;15.30;81.70;;;;;;5410129;26;20007;-67
2024/04/08 03:58:38;;;;;;;1.90;1.30;;;15.30;82.00;;;;;;5409931;26;20014;-66
2024/04/08 04:01:04;;;;;;;1.50;1.10;;;15.30;82.10;;;;;;5410317;26;20011;-67
2024/04/08 04:03:29;;;;;;;1.85;0.88;;;15.30;82.00;;;;;;5410946;26;20098;-66
2024/04/08 04:05:55;;;;;;;1.08;0.90;;;15.30;82.00;;;;;;5409769;26;20404;-66
2024/04/08 04:08:20;;;;;;;1.15;1.00;;;15.20;82.10;;;;;;5413480;26;20350;-66
2024/04/08 04:10:46;;;;;;;1.73;0.98;;;15.30;82.10;;;;;;5420912;26;19996;-66
2024/04/08 04:13:12;;;;;;;1.23;0.90;;;15.30;82.00;;;;;;5426127;26;20450;-66
2024/04/08 04:15:37;;;;;;;0.82;0.82;;;15.30;82.00;;;;;;5411479;26;20003;-66
2024/04/08 04:18:03;;;;;;;0.93;0.93;;;15.30;82.20;;;;;;5398430;26;19999;-66
2024/04/08 04:20:39;;;;;;;1.75;1.10;;;15.30;82.30;;;;;;5414992;26;20011;-66
2024/04/08 04:23:05;;;;;;;2.10;1.08;;;15.20;83.00;;;;;;5428562;26;19995;-66
2024/04/08 04:25:30;;;;;;;1.42;0.80;;;15.20;82.50;;;;;;5409814;26;20003;-67
2024/04/08 04:27:57;;;;;;;1.27;0.90;;;15.10;82.50;;;;;;5419762;26;20006;-66
2024/04/08 04:30:23;;;;;;;0.82;0.80;;;15.10;82.80;;;;;;5407597;26;20065;-67
2024/04/08 04:32:48;;;;;;;1.95;0.90;;;15.00;83.10;;;;;;5410022;26;20000;-67
2024/04/08 04:35:14;;;;;;;0.95;0.80;;;15.00;83.20;;;;;;5400123;26;20398;-67
2024/04/08 04:37:40;;;;;;;0.70;0.70;;;15.00;83.10;;;;;;5404756;26;20011;-67
2024/04/08 04:40:08;;;;;;;1.05;0.90;;;15.10;83.10;;;;;;5411175;26;19999;-67
2024/04/08 04:42:33;;;;;;;1.88;1.00;;;15.00;83.20;;;;;;5425514;26;20007;-66
2024/04/08 04:44:59;;;;;;;2.47;1.00;;;15.00;83.30;;;;;;5426871;26;20023;-67
2024/04/08 04:47:24;;;;;;;3.20;1.30;;;15.00;83.20;;;;;;5410645;26;20383;-67
2024/04/08 04:49:50;;;;;;;3.45;1.33;;;15.00;83.30;;;;;;5422910;26;20003;-67
2024/04/08 04:52:16;;;;;;;1.17;0.90;;;14.90;83.50;;;;;;5401770;26;20010;-65
2024/04/08 04:54:41;;;;;;;1.20;1.10;;;15.00;83.50;;;;;;5401763;26;20007;-67
2024/04/08 04:57:07;;;;;;;1.10;1.00;;;15.00;83.40;;;;;;5410137;26;20035;-67
2024/04/08 04:59:33;;;;;;;1.27;0.90;;;15.10;83.30;;;;;;5411169;26;19995;-67
2024/04/08 05:01:58;;;;;;;1.33;0.90;;;15.10;83.20;;;;;;5409570;26;20762;-67
2024/04/08 05:04:24;;;;;;;1.77;0.95;;;15.10;83.20;;;;;;5403459;26;20004;-66
2024/04/08 05:06:49;;;;;;;1.92;0.90;;;15.10;83.00;;;;;;5408031;26;19996;-67
2024/04/08 05:09:15;;;;;;;1.25;0.98;;;15.20;83.00;;;;;;5394043;26;20032;-66
2024/04/08 05:11:40;;;;;;;1.52;1.10;;;15.20;82.80;;;;;;5418264;26;20008;-65
2024/04/08 05:14:06;;;;;;;1.85;1.10;;;15.30;82.80;;;;;;5414677;26;20017;-66
2024/04/08 05:16:31;;;;;;;1.45;1.00;;;15.30;82.80;;;;;;5408198;26;20011;-67
2024/04/08 05:18:57;;;;;;;1.42;0.90;;;15.30;82.70;;;;;;5408546;26;20004;-66
2024/04/08 05:21:23;;;;;;;1.27;1.02;;;15.30;82.60;;;;;;5404059;26;20000;-66
2024/04/08 05:23:51;;;;;;;1.38;0.90;;;15.30;82.70;;;;;;5412267;26;20292;-67
2024/04/08 05:26:17;;;;;;;1.60;0.90;;;15.30;82.70;;;;;;5422101;26;20011;-67
2024/04/08 05:28:43;;;;;;;1.10;1.00;;;15.20;82.70;;;;;;5413578;26;20004;-66
2024/04/08 05:31:08;;;;;;;1.70;0.98;;;15.20;83.10;;;;;;5407261;26;20000;-67
2024/04/08 05:33:34;;;;;;;1.95;1.10;;;15.20;83.30;;;;;;5411284;26;19992;-69
2024/04/08 05:36:00;;;;;;;2.03;1.25;;;15.20;83.30;;;;;;5413775;26;20076;-67
2024/04/08 05:38:25;;;;;;;2.47;1.10;;;15.10;83.60;;;;;;5409769;26;20004;-66
2024/04/08 05:40:51;;;;;;;0.95;0.85;;;15.10;83.70;;;;;;5409725;26;20012;-66
2024/04/08 05:43:18;;;;;;;1.02;0.90;;;15.10;83.70;;;;;;5412324;26;20011;-67
2024/04/08 05:45:47;;;;;;;1.60;1.30;;;15.10;83.60;;;;;;5413475;26;19995;-67
2024/04/08 05:48:14;;;;;;;1.63;1.10;;;15.20;83.70;;;;;;5396263;26;19999;-68
2024/04/08 05:50:40;;;;;;;3.30;1.55;;;15.20;83.60;;;;;;5428528;26;20003;-67
2024/04/08 05:53:05;;;;;;;1.50;1.20;;;15.30;83.60;;;;;;5425854;26;20524;-67
2024/04/08 05:55:31;;;;;;;2.55;1.58;;;15.30;83.60;;;;;;5389303;26;20044;-68
2024/04/08 05:57:57;;;;;;;1.83;1.30;;;15.30;84.10;;;;;;5440001;26;20009;-66
2024/04/08 06:00:23;;;;;;;1.20;1.08;;;15.30;83.50;;;;;;5410168;26;20016;-67
2024/04/08 06:02:52;;;;;;;2.33;1.23;;;15.40;83.40;;;;;;5419606;26;20004;-67
2024/04/08 06:05:20;;;;;;;1.10;1.00;;;15.40;83.30;;;;;;5413320;26;19995;-67
2024/04/08 06:07:48;;;;;;;1.10;0.90;;;15.50;83.20;;;;;;5411900;26;20681;-66
2024/04/08 06:10:15;;;;;;;2.10;1.50;;;15.50;83.20;;;;;;5409888;26;20243;-67
2024/04/08 06:12:41;;;;;;;2.47;1.40;;;15.50;83.30;;;;;;5391069;26;20004;-68
2024/04/08 06:15:06;;;;;;;1.90;1.10;;;15.50;83.30;;;;;;5418713;26;20421;-67
2024/04/08 06:17:32;;;;;;;2.47;1.00;;;15.50;83.30;;;;;;5424357;26;20439;-66
2024/04/08 06:19:57;;;;;;;1.25;0.95;;;15.50;83.10;;;;;;5401851;26;20360;-66
2024/04/08 06:22:23;;;;;;;1.75;1.27;;;15.50;83.40;;;;;;5425178;26;20466;-66
2024/04/08 06:24:49;;;;;;;1.85;1.30;;;15.30;84.20;;;;;;5421732;26;19999;-67
2024/04/08 06:27:14;;;;;;;1.63;1.10;;;15.20;84.40;;;;;;5410380;26;20007;-67
2024/04/08 06:29:40;;;;;;;1.38;1.00;;;15.30;84.30;;;;;;5409246;26;20011;-66
2024/04/08 06:32:05;;;;;;;1.42;0.98;;;15.70;84.40;;;;;;5408099;26;19999;-66
2024/04/08 06:34:31;;;;;;;1.40;0.70;;;16.30;82.70;;;;;;5432153;26;20014;-67
2024/04/08 06:36:57;;;;;;;1.05;0.95;;;16.90;81.60;;;;;;5404148;26;20514;-66
2024/04/08 06:39:22;;;;;;;1.65;1.20;;;16.90;80.60;;;;;;5416116;26;20680;-65
2024/04/08 06:41:48;;;;;;;2.08;1.35;;;16.90;80.40;;;;;;5414056;26;20014;-66
2024/04/08 06:44:13;;;;;;;2.00;1.15;;;16.80;80.60;;;;;;5397182;26;20110;-66
2024/04/08 06:46:39;;;;;;;1.92;1.30;;;16.60;81.00;;;;;;5413788;26;20000;-66
2024/04/08 06:49:04;;;;;;;3.00;1.55;;;16.70;81.40;;;;;;5407742;26;20069;-66
2024/04/08 06:51:31;;;;;;;2.63;1.50;;;16.70;81.40;;;;;;5409100;26;20007;-66
2024/04/08 06:53:57;;;;;;;2.38;1.45;;;16.70;81.30;;;;;;5403147;26;20315;-66
2024/04/08 06:56:22;;;;;;;2.13;1.23;;;16.70;81.30;;;;;;5414016;26;20015;-66
2024/04/08 06:58:48;;;;;;;1.38;1.10;;;16.80;81.20;;;;;;5416073;26;20145;-66
2024/04/08 07:01:14;;;;;;;1.33;1.00;;;16.90;81.00;;;;;;5404291;26;20000;-66
2024/04/08 07:03:39;;;;;;;1.10;0.95;;;16.80;80.90;;;;;;5413038;26;20077;-66
2024/04/08 07:06:08;;;;;;;2.13;1.50;;;16.90;80.90;;;;;;5411138;26;20010;-66
2024/04/08 07:08:33;;;;;;;1.38;1.10;;;17.30;80.50;;;;;;5407437;26;20563;-65
2024/04/08 07:10:59;;;;;;;3.13;1.33;;;17.50;79.80;;;;;;5402030;26;20033;-65
2024/04/08 07:13:24;;;;;;;2.67;1.67;;;17.60;79.40;;;;;;5405290;26;19996;-65
2024/04/08 07:15:56;;;;;;;3.10;1.70;;;17.30;79.60;;;;;;5419321;26;20010;-66
2024/04/08 07:18:25;;;;;;;3.10;1.30;;;17.00;80.10;;;;;;5404317;26;19999;-65
2024/04/08 07:20:50;;;;;;;1.92;1.30;;;16.90;80.60;;;;;;5403983;26;20046;-65
2024/04/08 07:23:16;;;;;;;3.58;1.60;;;16.90;80.90;;;;;;5409549;26;19996;-65
2024/04/08 07:25:42;;;;;;;2.33;1.55;;;16.70;82.00;;;;;;5410544;26;20004;-65
2024/04/08 07:28:07;;;;;;;3.10;1.85;;;16.60;81.70;;;;;;5415395;26;20031;-65
2024/04/08 07:30:36;;;;;;;1.58;1.02;;;16.50;81.90;;;;;;5420163;26;20458;-65
2024/04/08 07:33:02;;;;;;;3.22;1.10;;;16.50;82.00;;;;;;5411348;26;20000;-65
2024/04/08 07:35:27;;;;;;;1.67;1.15;;;16.50;82.10;;;;;;5414203;26;20014;-66
2024/04/08 07:37:53;;;;;;;2.03;1.30;;;16.50;82.20;;;;;;5404767;26;20003;-66
2024/04/08 07:40:18;;;;;;;2.35;1.00;;;16.50;82.20;;;;;;5404224;26;20022;-65
2024/04/08 07:42:44;;;;;;;1.65;0.90;;;16.60;82.30;;;;;;5406707;26;20073;-65
2024/04/08 07:45:09;;;;;;;1.25;1.00;;;17.00;81.80;;;;;;5404954;26;20003;-65
2024/04/08 07:47:35;;;;;;;2.10;1.20;;;17.40;80.80;;;;;;5405687;26;20068;-65
2024/04/08 07:50:02;;;;;;;1.20;0.77;;;17.70;80.60;;;;;;5412772;26;20725;-65
2024/04/08 07:52:27;;;;;;;1.88;1.05;;;18.40;78.90;;;;;;5405167;26;20000;-65
2024/04/08 07:54:53;;;;;;;1.33;1.00;;;18.80;77.90;;;;;;5403244;26;20027;-65
2024/04/08 07:57:19;;;;;;;1.55;0.95;;;18.90;76.90;;;;;;5402748;26;20063;-65
2024/04/08 07:59:44;;;;;;;1.55;1.05;;;18.70;76.70;;;;;;5406415;26;20049;-65
2024/04/08 08:02:10;;;;;;;1.00;0.90;;;18.50;77.30;;;;;;5405587;26;20011;-65
2024/04/08 08:04:36;;;;;;;1.25;0.90;;;18.70;77.50;;;;;;5405014;26;20010;-65
2024/04/08 08:07:01;;;;;;;2.90;1.60;;;18.60;77.50;;;;;;5418613;26;20014;-65
2024/04/08 08:09:27;;;;;;;1.77;1.20;;;18.40;77.80;;;;;;5408385;26;19999;-65
2024/04/08 08:11:52;;;;;;;2.08;1.10;;;18.20;78.40;;;;;;5405652;26;20331;-65
2024/04/08 08:14:18;;;;;;;1.25;1.00;;;18.20;78.60;;;;;;5406757;26;20003;-65
2024/04/08 08:16:45;;;;;;;1.33;1.00;;;18.30;78.70;;;;;;5415597;26;19999;-65
2024/04/08 08:19:10;;;;;;;1.90;1.27;;;18.30;78.70;;;;;;5404047;26;20000;-65
2024/04/08 08:21:36;;;;;;;0.85;0.70;;;18.20;78.90;;;;;;5411227;26;19992;-65
2024/04/08 08:24:02;;;;;;;1.80;1.10;;;18.30;79.10;;;;;;5411381;26;19994;-65
2024/04/08 08:26:28;;;;;;;1.00;0.70;;;18.90;77.70;;;;;;5412010;26;20003;-65
2024/04/08 08:28:55;;;;;;;1.63;0.90;;;19.50;76.00;;;;;;5406668;26;19999;-65
2024/04/08 08:31:20;;;;;;;1.23;0.80;;;20.10;74.00;;;;;;5408695;26;20014;-65
2024/04/08 08:33:46;;;;;;;0.73;0.70;;;20.80;72.20;;;;;;5414634;26;19996;-65
2024/04/08 08:36:12;;;;;;;2.83;1.40;;;21.30;70.80;;;;;;5410361;26;20015;-65
2024/04/08 08:38:37;;;;;;;2.15;1.00;;;21.30;69.90;;;;;;5410929;26;20003;-65
2024/04/08 08:41:07;;;;;;;1.80;0.82;;;21.30;69.60;;;;;;5412403;26;20031;-65
2024/04/08 08:43:37;;;;;;;1.95;0.93;;;21.40;69.20;;;;;;5401611;26;20011;-66
2024/04/08 08:46:03;;;;;;;2.83;1.25;;;20.80;70.60;;;;;;5419423;26;19999;-65
2024/04/08 08:48:29;;;;;;;1.90;1.00;;;20.40;72.20;;;;;;5410439;26;19992;-66
2024/04/08 08:50:56;;;;;;;2.22;0.90;;;20.10;73.10;;;;;;5410418;26;20003;-65
2024/04/08 08:53:22;;;;;;;0.88;0.80;;;19.80;74.00;;;;;;5410983;26;20000;-66
2024/04/08 08:55:49;;;;;;;3.35;1.30;;;19.60;74.80;;;;;;5408706;26;20015;-65
2024/04/08 08:58:15;;;;;;;1.67;0.95;;;19.50;75.00;;;;;;5408736;26;19999;-65
2024/04/08 09:00:40;;;;;;;2.13;1.08;;;19.40;76.00;;;;;;5393559;26;20032;-66
2024/04/08 09:03:15;;;;;;;1.58;1.15;;;19.40;75.50;;;;;;5408697;26;19994;-66
2024/04/08 09:05:41;;;;;;;3.60;1.00;;;19.30;75.40;;;;;;5409909;26;20000;-67
2024/04/08 09:08:07;;;;;;;2.25;1.00;;;19.30;75.70;;;;;;5414170;26;20464;-66
2024/04/08 09:10:46;;;;;;;1.98;1.42;;;19.30;75.20;;;;;;5402762;26;20007;-66
2024/04/08 09:13:23;;;;;;;1.85;1.20;;;19.20;75.80;;;;;;5405236;26;20357;-66
2024/04/08 09:15:50;;;;;;;2.67;1.10;;;19.20;75.70;;;;;;5411995;26;20006;-65
2024/04/08 09:18:17;;;;;;;2.53;1.20;;;19.20;75.50;;;;;;5408736;26;20051;-65
2024/04/08 09:20:43;;;;;;;1.55;1.00;;;19.10;75.80;;;;;;5405769;26;20007;-67
2024/04/08 09:23:10;;;;;;;2.33;1.30;;;19.10;75.90;;;;;;5410522;26;20388;-66
2024/04/08 09:25:36;;;;;;;1.20;1.10;;;19.10;75.80;;;;;;5408684;26;20867;-66
2024/04/08 09:28:02;;;;;;;1.70;1.10;;;19.10;76.00;;;;;;5409103;26;20048;-66
2024/04/08 09:30:27;;;;;;;2.42;1.20;;;19.00;75.90;;;;;;5411367;26;20015;-66
2024/04/08 09:32:54;;;;;;;1.73;1.42;;;19.00;76.00;;;;;;5402436;26;20743;-66
2024/04/08 09:35:20;;;;;;;1.35;1.25;;;19.00;75.60;;;;;;5400814;26;20016;-65
2024/04/08 09:37:47;;;;;;;3.75;2.03;;;19.00;76.10;;;;;;5399581;26;20023;-66
2024/04/08 09:40:14;;;;;;;3.55;2.28;;;18.80;76.00;;;;;;5398673;26;20070;-66
2024/04/08 09:42:42;;;;;;;2.25;1.92;;;18.80;76.20;;;;;;5403490;26;20022;-65
2024/04/08 09:45:09;;;;;;;3.03;2.08;;;18.80;76.40;;;;;;5405476;26;20441;-65
2024/04/08 09:47:38;;;;;;;3.22;1.90;;;18.80;75.60;;;;;;5403260;26;20007;-66
2024/04/08 09:50:05;;;;;;;4.40;2.85;;;18.80;76.20;;;;;;5406798;26;20007;-66
2024/04/08 09:52:31;;;;;;;7.43;3.80;;;18.70;76.20;;;;;;5411104;26;20051;-66
2024/04/08 09:54:56;;;;;;;6.85;3.63;;;18.80;75.50;;;;;;5409672;26;20007;-66
2024/04/08 09:57:27;;;;;;;5.97;3.42;;;18.70;74.30;;;;;;5403743;26;20007;-66
2024/04/08 09:59:56;;;;;;;5.95;2.90;;;18.80;74.00;;;;;;5402749;26;20022;-66
2024/04/08 10:02:37;;;;;;;7.20;2.40;;;18.90;74.00;;;;;;5397968;26;20073;-66
2024/04/08 10:05:04;;;;;;;2.90;1.83;;;19.10;73.90;;;;;;5414166;26;20749;-66
2024/04/08 10:07:32;;;;;;;4.07;2.28;;;19.20;73.40;;;;;;5406985;26;20225;-66
2024/04/08 10:10:01;;;;;;;3.22;2.17;;;19.20;73.30;;;;;;5414964;26;19999;-66
2024/04/08 10:12:34;;;;;;;4.40;2.60;;;19.30;73.20;;;;;;5419014;26;20073;-66
2024/04/08 10:15:13;;;;;;;3.88;2.13;;;19.30;72.90;;;;;;5423024;26;20040;-66
2024/04/08 10:17:50;;;;;;;2.85;1.70;;;19.30;72.90;;;;;;5403171;26;20027;-66
2024/04/08 10:20:19;;;;;;;2.58;1.80;;;19.40;73.00;;;;;;5408746;26;20000;-66
2024/04/08 10:22:45;;;;;;;3.45;1.73;;;19.60;72.90;;;;;;5416447;26;20019;-66
2024/04/08 10:25:38;;;;;;;3.20;2.30;;;19.70;72.20;;;;;;5413421;26;20015;-66
2024/04/08 10:28:08;;;;;;;5.45;3.00;;;19.80;72.30;;;;;;5415799;26;20007;-66
2024/04/08 10:30:38;;;;;;;3.78;2.28;;;19.80;71.70;;;;;;5420753;26;20010;-67
2024/04/08 10:33:04;;;;;;;3.63;1.85;;;19.80;72.10;;;;;;5407683;26;19999;-66
2024/04/08 10:35:30;;;;;;;2.92;1.92;;;20.00;72.10;;;;;;5416813;26;20015;-66
2024/04/08 10:37:55;;;;;;;2.22;1.67;;;20.00;71.80;;;;;;5409648;26;19995;-66
2024/04/08 10:40:21;;;;;;;3.13;1.98;;;19.90;71.50;;;;;;5408831;26;20061;-66
2024/04/08 10:42:47;;;;;;;2.30;1.85;;;19.80;71.90;;;;;;5411986;26;20463;-66
2024/04/08 10:45:13;;;;;;;3.42;2.40;;;20.00;71.90;;;;;;5416954;26;20010;-66
2024/04/08 10:47:39;;;;;;;3.33;2.65;;;20.00;72.50;;;;;;5410187;26;20348;-66
2024/04/08 10:50:09;;;;;;;2.85;1.80;;;20.00;71.70;;;;;;5407548;26;20011;-66
2024/04/08 10:52:39;;;;;;;1.88;1.63;;;20.10;71.50;;;;;;5410270;26;20004;-66
2024/04/08 10:55:04;;;;;;;4.07;2.40;;;20.20;71.60;;;;;;5411628;26;20073;-66
2024/04/08 10:57:30;;;;;;;2.30;1.77;;;20.20;71.30;;;;;;5419718;26;20007;-66
2024/04/08 10:59:55;;;;;;;2.00;1.80;;;20.20;71.00;;;;;;5415831;26;20015;-65
2024/04/08 11:02:21;;;;;;;3.60;2.60;;;20.20;71.00;;;;;;5430947;26;20014;-66
2024/04/08 11:04:47;;;;;;;3.40;2.42;;;20.00;71.20;;;;;;5431341;26;20010;-66
2024/04/08 11:07:13;;;;;;;3.75;2.97;;;20.00;71.20;;;;;;5426579;26;20081;-66
2024/04/08 11:09:39;;;;;;;5.95;4.38;;;20.00;71.50;;;;;;5437845;26;20035;-67
2024/04/08 11:12:05;;;;;;;4.10;3.33;;;20.20;71.30;;;;;;5397743;26;20000;-66
2024/04/08 11:14:30;;;;;;;2.90;2.60;;;20.20;71.00;;;;;;5416406;26;20007;-66
2024/04/08 11:16:59;;;;;;;6.78;3.90;;;20.20;71.00;;;;;;5412923;26;20011;-66
2024/04/08 11:19:28;;;;;;;4.18;3.60;;;20.20;70.80;;;;;;5402941;26;20072;-67
2024/04/08 11:21:55;;;;;;;3.58;2.78;;;20.20;71.00;;;;;;5416610;26;20003;-66
2024/04/08 11:24:21;;;;;;;3.95;3.50;;;20.30;70.80;;;;;;5417922;26;19999;-66
2024/04/08 11:26:47;;;;;;;4.63;3.45;;;20.20;70.60;;;;;;5415345;26;19995;-66
2024/04/08 11:29:12;;;;;;;3.53;2.70;;;20.20;70.70;;;;;;5419931;26;20007;-66
2024/04/08 11:31:38;;;;;;;4.03;3.00;;;20.40;70.70;;;;;;5405988;26;20002;-66
2024/04/08 11:34:03;;;;;;;2.75;2.40;;;20.40;70.50;;;;;;5413879;26;19993;-66
2024/04/08 11:36:29;;;;;;;4.03;3.00;;;20.40;70.60;;;;;;5431111;26;20002;-66
2024/04/08 11:38:55;;;;;;;4.47;3.20;;;20.50;70.50;;;;;;5424636;26;20070;-66
2024/04/08 11:41:20;;;;;;;3.80;3.35;;;20.50;70.40;;;;;;5415259;26;20757;-65
2024/04/08 11:43:46;;;;;;;4.30;3.05;;;20.40;70.30;;;;;;5397427;26;20446;-67
2024/04/08 11:46:12;;;;;;;2.80;2.55;;;20.30;70.60;;;;;;5415687;26;20449;-66
2024/04/08 11:48:40;;;;;;;3.58;3.10;;;20.30;70.80;;;;;;5423034;26;20076;-68
2024/04/08 11:51:07;;;;;;;3.20;2.65;;;20.30;70.80;;;;;;5413783;26;20104;-66
2024/04/08 11:53:33;;;;;;;5.05;3.67;;;20.20;70.90;;;;;;5413692;26;19999;-66
2024/04/08 11:55:58;;;;;;;4.43;3.15;;;20.30;70.80;;;;;;5410225;26;20007;-66
2024/04/08 11:58:25;;;;;;;4.13;2.80;;;20.20;70.80;;;;;;5425859;26;20010;-66
2024/04/08 12:00:50;;;;;;;3.58;2.88;;;20.20;71.10;;;;;;5410492;26;19996;-67
2024/04/08 12:03:16;;;;;;;3.80;2.70;;;20.10;71.10;;;;;;5410474;26;20030;-67
2024/04/08 12:05:43;;;;;;;3.25;2.95;;;20.10;71.20;;;;;;5422911;26;20017;-66
2024/04/08 12:08:09;;;;;;;5.25;3.60;;;20.10;71.20;;;;;;5414026;26;20006;-66
2024/04/08 12:10:35;;;;;;;5.00;3.60;;;20.10;71.40;;;;;;5406319;26;20366;-66
2024/04/08 12:13:14;;;;;;;5.47;3.88;;;20.20;71.20;;;;;;5406754;26;19995;-67
2024/04/08 12:15:40;;;;;;;3.90;3.25;;;20.20;71.10;;;;;;5407288;26;20015;-66
2024/04/08 12:18:06;;;;;;;5.43;3.83;;;20.40;70.90;;;;;;5417424;26;20474;-66
2024/04/08 12:20:31;;;;;;;6.93;5.00;;;20.40;70.80;;;;;;5426023;26;20003;-65
2024/04/08 12:22:57;;;;;;;4.50;3.42;;;20.30;70.50;;;;;;5403294;26;19992;-66
2024/04/08 12:25:22;;;;;;;4.55;3.53;;;20.20;70.90;;;;;;5415553;26;20008;-66
2024/04/08 12:27:48;;;;;;;5.60;3.58;;;20.20;71.10;;;;;;5424427;26;19995;-67
2024/04/08 12:30:13;;;;;;;5.45;4.13;;;20.20;71.10;;;;;;5423763;26;20000;-66
2024/04/08 12:32:39;;;;;;;5.38;3.60;;;20.20;71.10;;;;;;5408662;26;20010;-66
2024/04/08 12:35:05;;;;;;;6.35;4.05;;;20.20;71.10;;;;;;5409307;26;20023;-67
2024/04/08 12:37:31;;;;;;;6.28;4.00;;;20.10;71.00;;;;;;5409993;26;19999;-67
2024/04/08 12:39:56;;;;;;;5.20;3.75;;;20.00;71.20;;;;;;5414953;26;20010;-66
2024/04/08 12:42:22;;;;;;;3.83;3.10;;;19.90;71.50;;;;;;5410366;26;19999;-67
2024/04/08 12:44:47;;;;;;;5.55;3.85;;;19.90;71.60;;;;;;5415128;26;20058;-66